createdAt,value
2018-06-24T00:04:43.605Z,12.20
2018-06-24T00:07:12.200Z,12.20
2018-06-24T00:09:41.382Z,12.20
2018-06-24T00:12:10.044Z,12.10
2018-06-24T00:14:38.468Z,12.10
2018-06-24T00:17:07.332Z,12.10
2018-06-24T00:19:36.331Z,12.10
2018-06-24T00:22:05.343Z,12.10
2018-06-24T00:24:33.806Z,12.10
2018-06-24T00:27:02.630Z,12.10
2018-06-24T00:29:31.162Z,12.00
2018-06-24T00:31:59.710Z,11.90
2018-06-24T00:34:28.356Z,12.00
2018-06-24T00:36:56.909Z,12.00
2018-06-24T00:39:25.414Z,11.90
2018-06-24T00:41:54.082Z,11.90
2018-06-24T00:44:22.589Z,11.90
2018-06-24T00:46:51.460Z,11.90
2018-06-24T00:49:20.062Z,11.90
2018-06-24T00:51:48.520Z,12.00
2018-06-24T00:54:17.006Z,12.00
2018-06-24T00:56:45.464Z,12.00
2018-06-24T00:59:25.450Z,12.00
2018-06-24T01:01:53.958Z,12.00
2018-06-24T01:04:22.380Z,12.00
2018-06-24T01:06:50.868Z,12.00
2018-06-24T01:09:19.664Z,11.90
2018-06-24T01:11:48.169Z,11.90
2018-06-24T01:14:16.850Z,11.90
2018-06-24T01:16:45.277Z,11.90
2018-06-24T01:19:13.776Z,11.90
2018-06-24T01:21:42.236Z,11.90
2018-06-24T01:24:10.639Z,11.90
2018-06-24T01:26:39.433Z,11.80
2018-06-24T01:29:08.332Z,11.90
2018-06-24T01:31:37.135Z,11.90
2018-06-24T01:34:05.683Z,11.90
2018-06-24T01:36:34.450Z,11.90
2018-06-24T01:41:31.158Z,11.90
2018-06-24T01:43:59.775Z,11.90
2018-06-24T01:46:28.291Z,11.90
2018-06-24T01:48:56.993Z,11.90
2018-06-24T01:51:25.814Z,11.90
2018-06-24T01:53:54.746Z,11.90
2018-06-24T01:56:23.526Z,11.90
2018-06-24T02:01:20.626Z,11.80
2018-06-24T02:03:49.100Z,11.80
2018-06-24T02:06:17.563Z,11.90
2018-06-24T02:08:46.444Z,11.90
2018-06-24T02:11:14.955Z,11.80
2018-06-24T02:13:43.940Z,11.80
2018-06-24T02:16:12.804Z,11.90
2018-06-24T02:21:09.730Z,11.90
2018-06-24T02:23:38.230Z,11.90
2018-06-24T02:26:06.745Z,11.90
2018-06-24T02:28:35.748Z,11.80
2018-06-24T02:31:04.272Z,11.90
2018-06-24T02:33:33.080Z,11.90
2018-06-24T02:36:02.192Z,11.90
2018-06-24T02:38:31.016Z,11.90
2018-06-24T02:40:59.928Z,11.90
2018-06-24T02:43:28.366Z,11.90
2018-06-24T02:45:56.780Z,11.90
2018-06-24T02:48:25.407Z,11.90
2018-06-24T02:50:53.947Z,12.00
2018-06-24T02:53:22.502Z,12.00
2018-06-24T02:55:51.320Z,11.90
2018-06-24T03:00:48.120Z,12.00
2018-06-24T03:03:16.601Z,11.90
2018-06-24T03:05:45.421Z,12.00
2018-06-24T03:08:14.236Z,12.00
2018-06-24T03:10:42.564Z,12.00
2018-06-24T03:13:11.338Z,12.00
2018-06-24T03:15:39.830Z,12.00
2018-06-24T03:18:08.547Z,12.00
2018-06-24T03:20:37.751Z,12.00
2018-06-24T03:23:06.312Z,12.00
2018-06-24T03:25:34.802Z,11.90
2018-06-24T03:28:03.701Z,11.90
2018-06-24T03:30:32.478Z,11.90
2018-06-24T03:33:01.234Z,11.90
2018-06-24T03:37:58.571Z,11.90
2018-06-24T03:40:27.145Z,11.90
2018-06-24T03:42:55.927Z,11.90
2018-06-24T03:45:24.404Z,11.90
2018-06-24T03:47:52.859Z,11.90
2018-06-24T03:50:21.393Z,11.90
2018-06-24T03:52:50.650Z,11.90
2018-06-24T03:55:19.116Z,11.90
2018-06-24T03:57:48.222Z,12.00
2018-06-24T04:00:17.027Z,11.90
2018-06-24T04:02:45.581Z,12.00
2018-06-24T04:05:14.367Z,11.90
2018-06-24T04:07:42.946Z,11.90
2018-06-24T04:10:11.448Z,12.00
2018-06-24T04:12:40.689Z,12.00
2018-06-24T04:15:09.543Z,12.00
2018-06-24T04:17:38.353Z,12.10
2018-06-24T04:20:06.836Z,12.00
2018-06-24T04:22:35.408Z,12.10
2018-06-24T04:25:03.996Z,12.10
2018-06-24T04:27:32.782Z,12.10
2018-06-24T04:30:01.642Z,12.10
2018-06-24T04:32:30.343Z,12.10
2018-06-24T04:34:58.781Z,12.10
2018-06-24T04:37:27.526Z,12.10
2018-06-24T04:39:56.458Z,12.10
2018-06-24T04:42:25.382Z,12.10
2018-06-24T04:44:54.018Z,12.10
2018-06-24T04:47:22.926Z,12.20
2018-06-24T04:49:51.411Z,12.20
2018-06-24T04:52:20.303Z,12.20
2018-06-24T04:54:49.116Z,12.20
2018-06-24T04:57:17.627Z,12.20
2018-06-24T04:59:46.628Z,12.30
2018-06-24T05:02:15.128Z,12.30
2018-06-24T05:04:43.960Z,12.30
2018-06-24T05:07:12.664Z,12.30
2018-06-24T05:09:41.109Z,12.30
2018-06-24T05:12:09.867Z,12.30
2018-06-24T05:14:38.711Z,12.30
2018-06-24T05:17:07.180Z,12.30
2018-06-24T05:19:35.943Z,12.30
2018-06-24T05:22:04.465Z,12.30
2018-06-24T05:24:33.274Z,12.40
2018-06-24T05:27:01.756Z,12.30
2018-06-24T05:29:30.228Z,12.30
2018-06-24T05:31:58.769Z,12.30
2018-06-24T05:34:27.652Z,12.30
2018-06-24T05:36:56.155Z,12.30
2018-06-24T05:39:25.046Z,12.30
2018-06-24T05:41:53.626Z,12.40
2018-06-24T05:44:22.246Z,12.30
2018-06-24T05:46:50.766Z,12.30
2018-06-24T05:49:19.262Z,12.30
2018-06-24T05:51:48.020Z,12.30
2018-06-24T05:54:16.807Z,12.30
2018-06-24T05:56:45.385Z,12.30
2018-06-24T05:59:13.928Z,12.30
2018-06-24T06:01:42.738Z,12.30
2018-06-24T06:04:11.558Z,12.40
2018-06-24T06:06:40.098Z,12.40
2018-06-24T06:09:10.916Z,12.50
2018-06-24T06:11:39.404Z,12.50
2018-06-24T06:14:08.077Z,12.60
2018-06-24T06:16:36.667Z,12.70
2018-06-24T06:19:06.225Z,12.70
2018-06-24T06:24:03.402Z,12.80
2018-06-24T06:26:32.081Z,12.80
2018-06-24T06:31:29.798Z,12.80
2018-06-24T06:33:58.574Z,12.90
2018-06-24T06:36:28.685Z,12.90
2018-06-24T06:38:57.466Z,12.90
2018-06-24T06:41:26.174Z,13.00
2018-06-24T06:43:54.731Z,12.90
2018-06-24T06:46:23.214Z,12.90
2018-06-24T06:48:51.932Z,12.90
2018-06-24T06:51:20.632Z,12.90
2018-06-24T06:53:49.421Z,12.80
2018-06-24T06:56:17.889Z,12.80
2018-06-24T06:58:46.684Z,12.90
2018-06-24T07:01:15.196Z,12.90
2018-06-24T07:03:43.997Z,12.90
2018-06-24T07:06:12.696Z,13.00
2018-06-24T07:08:41.180Z,12.90
2018-06-24T07:11:09.701Z,12.90
2018-06-24T07:13:38.191Z,12.90
2018-06-24T07:16:06.648Z,12.80
2018-06-24T07:18:35.084Z,12.80
2018-06-24T07:21:03.934Z,12.90
2018-06-24T07:23:32.366Z,12.90
2018-06-24T07:26:01.148Z,12.90
2018-06-24T07:28:29.969Z,13.00
2018-06-24T07:30:58.728Z,12.90
2018-06-24T07:33:27.569Z,12.90
2018-06-24T07:35:56.093Z,12.90
2018-06-24T07:40:52.765Z,12.90
2018-06-24T07:43:21.230Z,13.00
2018-06-24T07:45:49.709Z,12.90
2018-06-24T07:48:18.429Z,13.00
2018-06-24T07:50:46.939Z,12.90
2018-06-24T07:53:15.482Z,12.90
2018-06-24T07:55:44.042Z,12.90
2018-06-24T07:58:12.565Z,13.00
2018-06-24T08:00:41.140Z,13.00
2018-06-24T08:03:10.087Z,13.00
2018-06-24T08:05:39.023Z,12.90
2018-06-24T08:08:07.913Z,12.90
2018-06-24T08:10:36.412Z,12.90
2018-06-24T08:13:05.647Z,12.90
2018-06-24T08:15:34.085Z,13.00
2018-06-24T08:18:02.638Z,13.00
2018-06-24T08:20:31.421Z,13.00
2018-06-24T08:23:00.133Z,13.00
2018-06-24T08:25:28.610Z,13.10
2018-06-24T08:27:57.423Z,13.10
2018-06-24T08:30:25.868Z,13.00
2018-06-24T08:32:54.671Z,13.00
2018-06-24T08:35:23.441Z,13.10
2018-06-24T08:37:52.193Z,13.10
2018-06-24T08:40:21.005Z,13.10
2018-06-24T08:42:49.985Z,13.00
2018-06-24T08:45:18.457Z,13.00
2018-06-24T08:47:46.894Z,13.00
2018-06-24T08:50:15.367Z,13.10
2018-06-24T08:52:43.833Z,13.10
2018-06-24T08:55:12.623Z,13.10
2018-06-24T08:57:41.186Z,13.10
2018-06-24T09:00:10.018Z,13.20
2018-06-24T09:02:38.827Z,13.30
2018-06-24T09:05:07.413Z,13.20
2018-06-24T09:07:36.025Z,13.20
2018-06-24T09:12:32.826Z,13.30
2018-06-24T09:15:01.562Z,13.20
2018-06-24T09:17:30.489Z,13.20
2018-06-24T09:19:58.954Z,13.10
2018-06-24T09:22:27.797Z,13.10
2018-06-24T09:24:56.256Z,13.20
2018-06-24T09:27:24.986Z,13.10
2018-06-24T09:29:53.412Z,13.10
2018-06-24T09:32:21.916Z,13.20
2018-06-24T09:34:50.356Z,13.20
2018-06-24T09:37:18.816Z,13.10
2018-06-24T09:39:47.764Z,13.10
2018-06-24T09:42:16.224Z,13.10
2018-06-24T09:44:44.722Z,13.10
2018-06-24T09:47:13.205Z,13.30
2018-06-24T09:49:41.764Z,13.30
2018-06-24T09:52:10.264Z,13.40
2018-06-24T09:54:38.739Z,13.50
2018-06-24T09:57:07.207Z,13.50
2018-06-24T09:59:35.987Z,13.50
2018-06-24T10:02:04.872Z,13.50
2018-06-24T10:04:33.388Z,13.40
2018-06-24T10:07:02.121Z,13.40
2018-06-24T10:09:30.917Z,13.30
2018-06-24T10:11:59.473Z,13.20
2018-06-24T10:14:28.335Z,13.20
2018-06-24T10:16:56.800Z,13.30
2018-06-24T10:19:25.268Z,13.40
2018-06-24T10:21:53.734Z,13.50
2018-06-24T10:24:22.548Z,13.40
2018-06-24T10:26:50.985Z,13.40
2018-06-24T10:29:19.467Z,13.50
2018-06-24T10:31:48.256Z,13.50
2018-06-24T10:34:16.700Z,13.60
2018-06-24T10:36:45.228Z,13.60
2018-06-24T10:39:13.820Z,13.60
2018-06-24T10:41:42.582Z,13.60
2018-06-24T10:44:11.078Z,13.70
2018-06-24T10:46:39.578Z,13.70
2018-06-24T10:49:07.994Z,13.70
2018-06-24T10:51:36.850Z,13.70
2018-06-24T10:54:05.438Z,13.60
2018-06-24T10:56:34.548Z,13.60
2018-06-24T10:59:03.136Z,13.60
2018-06-24T11:01:32.163Z,13.60
2018-06-24T11:04:00.969Z,13.60
2018-06-24T11:06:29.720Z,13.70
2018-06-24T11:08:58.853Z,13.80
2018-06-24T11:11:27.715Z,13.80
2018-06-24T11:13:56.709Z,13.90
2018-06-24T11:16:25.581Z,13.90
2018-06-24T11:18:54.121Z,13.80
2018-06-24T11:21:22.927Z,13.80
2018-06-24T11:23:51.422Z,13.80
2018-06-24T11:26:19.957Z,13.80
2018-06-24T11:28:48.563Z,13.80
2018-06-24T11:31:17.353Z,13.80
2018-06-24T11:33:46.203Z,13.80
2018-06-24T11:38:42.922Z,14.00
2018-06-24T11:41:11.395Z,14.10
2018-06-24T11:43:39.863Z,14.10
2018-06-24T11:46:08.748Z,14.10
2018-06-24T11:48:37.530Z,14.10
2018-06-24T11:51:06.362Z,14.10
2018-06-24T11:53:34.831Z,14.20
2018-06-24T11:56:03.391Z,14.10
2018-06-24T11:58:32.167Z,14.10
2018-06-24T12:01:00.960Z,14.10
2018-06-24T12:03:29.415Z,14.10
2018-06-24T12:08:26.375Z,14.10
2018-06-24T12:10:54.849Z,14.10
2018-06-24T12:13:23.329Z,14.20
2018-06-24T12:15:51.798Z,14.30
2018-06-24T12:18:20.402Z,14.30
2018-06-24T12:23:16.969Z,14.40
2018-06-24T12:25:45.492Z,14.30
2018-06-24T12:28:14.000Z,14.30
2018-06-24T12:30:42.451Z,14.50
2018-06-24T12:33:11.219Z,14.50
2018-06-24T12:35:39.673Z,14.50
2018-06-24T12:38:08.817Z,14.60
2018-06-24T12:40:37.245Z,14.50
2018-06-24T12:43:06.031Z,14.60
2018-06-24T12:45:34.818Z,14.60
2018-06-24T12:48:03.326Z,14.50
2018-06-24T12:50:31.800Z,14.50
2018-06-24T12:53:00.294Z,14.50
2018-06-24T12:55:29.062Z,14.50
2018-06-24T12:57:58.082Z,14.60
2018-06-24T13:00:27.062Z,14.60
2018-06-24T13:02:55.721Z,14.60
2018-06-24T13:05:24.571Z,14.70
2018-06-24T13:07:53.072Z,14.70
2018-06-24T13:10:21.872Z,14.80
2018-06-24T13:12:50.488Z,14.80
2018-06-24T13:15:19.534Z,14.80
2018-06-24T13:17:48.033Z,14.70
2018-06-24T13:20:16.705Z,14.70
2018-06-24T13:22:45.263Z,14.60
2018-06-24T13:25:13.717Z,14.60
2018-06-24T13:27:42.191Z,14.70
2018-06-24T13:30:10.959Z,14.70
2018-06-24T13:32:39.407Z,14.70
2018-06-24T13:37:36.519Z,14.60
2018-06-24T13:40:05.597Z,14.50
2018-06-24T13:42:34.667Z,14.50
2018-06-24T13:45:03.187Z,14.50
2018-06-24T13:47:31.655Z,14.50
2018-06-24T13:50:00.357Z,14.50
2018-06-24T13:52:28.927Z,14.50
2018-06-24T13:54:57.619Z,14.40
2018-06-24T13:57:26.469Z,14.40
2018-06-24T14:02:23.321Z,14.40
2018-06-24T14:04:52.267Z,14.50
2018-06-24T14:07:21.315Z,14.50
2018-06-24T14:09:50.111Z,14.50
2018-06-24T14:12:18.595Z,14.60
2018-06-24T14:17:15.899Z,14.60
2018-06-24T14:19:44.591Z,14.70
2018-06-24T14:22:13.442Z,14.60
2018-06-24T14:24:42.258Z,14.60
2018-06-24T14:27:11.313Z,14.60
2018-06-24T14:29:40.002Z,14.60
2018-06-24T14:32:08.565Z,14.60
2018-06-24T14:34:37.410Z,14.70
2018-06-24T14:37:05.989Z,14.70
2018-06-24T14:39:34.701Z,14.80
2018-06-24T14:42:03.199Z,14.80
2018-06-24T14:44:31.662Z,14.80
2018-06-24T14:47:00.225Z,14.80
2018-06-24T14:49:29.283Z,14.80
2018-06-24T14:54:26.279Z,14.70
2018-06-24T14:56:54.730Z,14.60
2018-06-24T14:59:23.435Z,14.60
2018-06-24T15:01:51.977Z,14.60
2018-06-24T15:04:20.749Z,14.60
2018-06-24T15:06:49.581Z,14.70
2018-06-24T15:09:18.041Z,14.60
2018-06-24T15:11:46.553Z,14.70
2018-06-24T15:14:15.053Z,14.70
2018-06-24T15:16:43.545Z,14.70
2018-06-24T15:19:12.027Z,14.80
2018-06-24T15:21:40.720Z,14.70
2018-06-24T15:24:09.245Z,14.80
2018-06-24T15:26:38.322Z,14.90
2018-06-24T15:29:06.867Z,14.90
2018-06-24T15:31:35.503Z,15.00
2018-06-24T15:34:04.349Z,15.00
2018-06-24T15:36:33.195Z,15.00
2018-06-24T15:39:02.069Z,15.00
2018-06-24T15:41:30.561Z,15.00
2018-06-24T15:43:59.269Z,15.00
2018-06-24T15:46:28.017Z,15.00
2018-06-24T15:48:56.524Z,15.00
2018-06-24T15:51:25.387Z,15.10
2018-06-24T15:53:54.112Z,15.10
2018-06-24T15:56:22.884Z,15.00
2018-06-24T15:58:51.391Z,14.90
2018-06-24T16:01:19.885Z,14.90
2018-06-24T16:03:48.679Z,14.90
2018-06-24T16:06:17.131Z,14.90
2018-06-24T16:08:45.573Z,14.90
2018-06-24T16:13:42.319Z,14.90
2018-06-24T16:16:10.825Z,14.80
2018-06-24T16:18:39.311Z,14.80
2018-06-24T16:21:07.964Z,14.70
2018-06-24T16:23:36.261Z,14.80
2018-06-24T16:28:33.541Z,14.80
2018-06-24T16:31:02.097Z,14.90
2018-06-24T16:35:59.007Z,14.80
2018-06-24T16:38:27.581Z,14.80
2018-06-24T16:40:56.033Z,14.80
2018-06-24T16:45:53.363Z,14.70
2018-06-24T16:48:21.844Z,14.70
2018-06-24T16:50:50.609Z,14.70
2018-06-24T16:53:19.052Z,14.70
2018-06-24T16:58:16.722Z,14.70
2018-06-24T17:00:45.215Z,14.60
2018-06-24T17:03:13.708Z,14.50
2018-06-24T17:05:42.527Z,14.50
2018-06-24T17:08:11.715Z,14.50
2018-06-24T17:10:40.293Z,14.50
2018-06-24T17:13:10.671Z,14.50
2018-06-24T17:15:39.420Z,14.50
2018-06-24T17:18:07.916Z,14.50
2018-06-24T17:20:36.412Z,14.50
2018-06-24T17:23:05.232Z,14.40
2018-06-24T17:25:33.713Z,14.40
2018-06-24T17:28:02.695Z,14.40
2018-06-24T17:30:34.585Z,14.40
2018-06-24T17:33:03.069Z,14.40
2018-06-24T17:35:31.582Z,14.40
2018-06-24T17:38:00.822Z,14.40
2018-06-24T17:40:29.343Z,14.40
2018-06-24T17:42:58.302Z,14.40
2018-06-24T17:45:27.145Z,14.50
2018-06-24T17:47:55.655Z,14.40
2018-06-24T17:50:24.135Z,14.40
2018-06-24T17:52:53.134Z,14.50
2018-06-24T17:55:22.244Z,14.40
2018-06-24T17:57:50.741Z,14.40
2018-06-24T18:00:19.321Z,14.40
2018-06-24T18:02:47.725Z,14.40
2018-06-24T18:05:16.408Z,14.30
2018-06-24T18:07:44.933Z,14.20
2018-06-24T18:12:42.667Z,14.10
2018-06-24T18:15:11.121Z,14.00
2018-06-24T18:17:39.905Z,14.20
2018-06-24T18:20:08.849Z,14.10
2018-06-24T18:22:37.403Z,14.10
2018-06-24T18:25:06.155Z,14.00
2018-06-24T18:27:34.681Z,14.00
2018-06-24T18:30:03.220Z,14.00
2018-06-24T18:32:31.695Z,14.00
2018-06-24T18:35:00.204Z,14.00
2018-06-24T18:37:28.891Z,14.00
2018-06-24T18:39:57.641Z,13.90
2018-06-24T18:42:26.177Z,13.90
2018-06-24T18:44:54.829Z,14.00
2018-06-24T18:47:23.405Z,13.90
2018-06-24T18:49:51.891Z,13.90
2018-06-24T18:52:20.365Z,13.90
2018-06-24T18:54:48.909Z,13.90
2018-06-24T18:57:17.390Z,13.90
2018-06-24T18:59:46.174Z,13.90
2018-06-24T19:02:14.780Z,13.90
2018-06-24T19:04:43.285Z,13.90
2018-06-24T19:07:12.244Z,13.90
2018-06-24T19:09:40.990Z,13.90
2018-06-24T19:12:09.667Z,13.90
2018-06-24T19:14:38.471Z,13.80
2018-06-24T19:17:07.082Z,13.90
2018-06-24T19:19:35.527Z,13.80
2018-06-24T19:22:04.297Z,13.80
2018-06-24T19:24:33.385Z,13.70
2018-06-24T19:27:01.881Z,13.60
2018-06-24T19:29:30.379Z,13.70
2018-06-24T19:31:58.998Z,13.60
2018-06-24T19:36:56.221Z,13.60
2018-06-24T19:39:24.778Z,13.60
2018-06-24T19:41:53.298Z,13.60
2018-06-24T19:44:21.833Z,13.60
2018-06-24T19:46:50.422Z,13.60
2018-06-24T19:49:18.919Z,13.60
2018-06-24T19:51:47.579Z,13.50
2018-06-24T19:54:16.305Z,13.50
2018-06-24T19:56:45.636Z,13.50
2018-06-24T19:59:14.404Z,13.50
2018-06-24T20:01:43.209Z,13.40
2018-06-24T20:04:11.734Z,13.40
2018-06-24T20:06:40.735Z,13.40
2018-06-24T20:09:10.560Z,13.30
2018-06-24T20:11:39.555Z,13.30
2018-06-24T20:14:08.667Z,13.30
2018-06-24T20:16:37.513Z,13.30
2018-06-24T20:19:06.260Z,13.30
2018-06-24T20:21:35.115Z,13.30
2018-06-24T20:24:03.771Z,13.30
2018-06-24T20:26:32.365Z,13.20
2018-06-24T20:29:01.305Z,13.20
2018-06-24T20:31:29.725Z,13.20
2018-06-24T20:33:58.214Z,13.20
2018-06-24T20:36:27.007Z,13.20
2018-06-24T20:38:55.582Z,13.20
2018-06-24T20:41:24.098Z,13.20
2018-06-24T20:43:52.589Z,13.10
2018-06-24T20:46:21.352Z,13.10
2018-06-24T20:48:49.917Z,13.10
2018-06-24T20:51:19.129Z,13.10
2018-06-24T20:53:48.019Z,13.10
2018-06-24T20:56:16.650Z,13.20
2018-06-24T20:58:45.210Z,13.20
2018-06-24T21:01:13.761Z,13.20
2018-06-24T21:03:42.234Z,13.20
2018-06-24T21:06:10.827Z,13.20
2018-06-24T21:08:39.309Z,13.20
2018-06-24T21:11:07.875Z,13.20
2018-06-24T21:13:36.424Z,13.20
2018-06-24T21:16:04.937Z,13.10
2018-06-24T21:18:33.472Z,13.10
2018-06-24T21:21:02.073Z,13.10
2018-06-24T21:23:30.556Z,13.10
2018-06-24T21:25:58.996Z,13.10
2018-06-24T21:28:27.474Z,13.10
2018-06-24T21:30:56.241Z,13.10
2018-06-24T21:33:24.846Z,13.10
2018-06-24T21:35:53.347Z,13.10
2018-06-24T21:38:21.870Z,13.10
2018-06-24T21:40:50.760Z,13.20
2018-06-24T21:43:19.489Z,13.20
2018-06-24T21:45:48.224Z,13.20
2018-06-24T21:50:45.450Z,13.20
2018-06-24T21:53:13.970Z,13.20
2018-06-24T21:55:42.524Z,13.20
2018-06-24T21:58:11.104Z,13.20
2018-06-24T22:00:39.950Z,13.10
2018-06-24T22:03:09.165Z,13.10
2018-06-24T22:05:37.722Z,13.20
2018-06-24T22:08:06.384Z,13.20
2018-06-24T22:10:35.305Z,13.20
2018-06-24T22:13:04.500Z,13.20
2018-06-24T22:15:33.002Z,13.20
2018-06-24T22:18:01.590Z,13.10
2018-06-24T22:20:30.141Z,13.20
2018-06-24T22:22:58.676Z,13.20
2018-06-24T22:25:27.202Z,13.20
2018-06-24T22:27:56.015Z,13.20
2018-06-24T22:30:24.639Z,13.20
2018-06-24T22:32:53.092Z,13.20
2018-06-24T22:35:21.638Z,13.20
2018-06-24T22:37:50.136Z,13.20
2018-06-24T22:40:19.381Z,13.20
2018-06-24T22:42:47.863Z,13.20
2018-06-24T22:45:16.360Z,13.20
2018-06-24T22:47:45.135Z,13.30
2018-06-24T22:50:13.670Z,13.20
2018-06-24T22:52:42.334Z,13.20
2018-06-24T22:55:10.822Z,13.30
2018-06-24T22:57:39.650Z,13.20
2018-06-24T23:00:11.798Z,13.30
2018-06-24T23:02:40.932Z,13.30
2018-06-24T23:05:10.053Z,13.30
2018-06-24T23:07:39.375Z,13.30
2018-06-24T23:10:08.236Z,13.30
2018-06-24T23:12:36.696Z,13.20
2018-06-24T23:15:06.338Z,13.20
2018-06-24T23:17:34.976Z,13.30
2018-06-24T23:20:03.580Z,13.20
2018-06-24T23:22:33.581Z,13.20
2018-06-24T23:25:02.049Z,13.20
2018-06-24T23:27:30.548Z,13.20
2018-06-24T23:29:59.284Z,13.20
2018-06-24T23:32:28.570Z,13.30
2018-06-24T23:34:57.452Z,13.30
2018-06-24T23:37:26.245Z,13.30
2018-06-24T23:39:55.126Z,13.30
2018-06-24T23:44:52.315Z,13.40
2018-06-24T23:47:20.845Z,13.40
2018-06-24T23:49:49.559Z,13.40
2018-06-24T23:52:18.408Z,13.40
2018-06-24T23:54:46.848Z,13.40
2018-06-24T23:57:15.432Z,13.40
2018-06-24T23:59:44.553Z,13.40
